Time;durP1;ratioP1;P1;durP2;ratioP2;P2;SDS_P1;SDS_P2;PMS_P1;PMS_P2;Temp;Humidity;BMP_temperature;BMP_pressure;BME280_temperature;BME280_humidity;BME280_pressure;Samples;Min_cycle;Max_cycle;Signal;HPM_P1;HPM_P2
2022/03/06 00:01:18;;;;;;;31.97;13.83;;;;;;;;;;5052216;28;20290;-62
2022/03/06 00:03:44;;;;;;;30.33;13.20;;;;;;;;;;5051784;28;20293;-62
2022/03/06 00:06:11;;;;;;;29.57;13.50;;;;;;;;;;5052317;28;20323;-62
2022/03/06 00:08:37;;;;;;;29.83;14.20;;;;;;;;;;5051721;28;20287;-62
2022/03/06 00:11:03;;;;;;;30.73;14.63;;;;;;;;;;5051467;28;20284;-62
2022/03/06 00:13:29;;;;;;;28.27;13.33;;;;;;;;;;5051805;28;20358;-62
2022/03/06 00:15:55;;;;;;;30.83;13.63;;;;;;;;;;5051493;28;20619;-62
2022/03/06 00:18:21;;;;;;;25.30;13.13;;;;;;;;;;5051828;28;20282;-62
2022/03/06 00:20:47;;;;;;;30.50;14.27;;;;;;;;;;5050853;28;20307;-62
2022/03/06 00:23:13;;;;;;;35.00;14.63;;;;;;;;;;5032756;28;20292;-62
2022/03/06 00:25:39;;;;;;;29.83;14.60;;;;;;;;;;5031931;28;20799;-62
2022/03/06 00:28:05;;;;;;;32.37;15.17;;;;;;;;;;5031589;28;20781;-62
2022/03/06 00:30:32;;;;;;;33.83;16.37;;;;;;;;;;5031553;28;20701;-62
2022/03/06 00:32:58;;;;;;;34.93;16.60;;;;;;;;;;5031161;28;20276;-62
2022/03/06 00:35:26;;;;;;;36.67;16.23;;;;;;;;;;5031480;28;20374;-62
2022/03/06 00:37:52;;;;;;;34.00;18.00;;;;;;;;;;5031181;28;20303;-62
2022/03/06 00:40:18;;;;;;;35.80;17.50;;;;;;;;;;5041095;28;20308;-63
2022/03/06 00:42:44;;;;;;;31.90;16.20;;;;;;;;;;5030842;28;20280;-62
2022/03/06 00:45:10;;;;;;;33.87;16.53;;;;;;;;;;5040213;28;20761;-62
2022/03/06 00:47:36;;;;;;;36.23;16.80;;;;;;;;;;5051212;28;20283;-62
2022/03/06 00:50:03;;;;;;;36.53;17.40;;;;;;;;;;5051048;28;20275;-62
2022/03/06 00:52:29;;;;;;;35.03;18.03;;;;;;;;;;5050444;28;21172;-62
2022/03/06 00:54:55;;;;;;;31.77;17.30;;;;;;;;;;5050716;28;20294;-62
2022/03/06 00:57:21;;;;;;;38.67;18.60;;;;;;;;;;5049618;28;20292;-62
2022/03/06 00:59:47;;;;;;;32.27;16.70;;;;;;;;;;5050855;28;20365;-62
2022/03/06 01:02:13;;;;;;;40.30;18.80;;;;;;;;;;5038373;28;20280;-62
2022/03/06 01:04:40;;;;;;;34.43;18.27;;;;;;;;;;5045487;28;20292;-62
2022/03/06 01:07:06;;;;;;;35.47;17.07;;;;;;;;;;5030616;28;20288;-62
2022/03/06 01:09:32;;;;;;;39.53;18.10;;;;;;;;;;5031218;28;20277;-62
2022/03/06 01:11:58;;;;;;;32.83;18.37;;;;;;;;;;5030507;28;20841;-62
2022/03/06 01:14:24;;;;;;;35.03;19.57;;;;;;;;;;5046422;28;20295;-62
2022/03/06 01:16:50;;;;;;;35.27;18.03;;;;;;;;;;5036125;28;20322;-62
2022/03/06 01:19:16;;;;;;;39.43;20.20;;;;;;;;;;5039873;28;20311;-62
2022/03/06 01:21:43;;;;;;;33.73;17.83;;;;;;;;;;5039650;28;20292;-62
2022/03/06 01:24:09;;;;;;;35.07;18.10;;;;;;;;;;5039570;28;20835;-62
2022/03/06 01:26:35;;;;;;;34.13;18.07;;;;;;;;;;5056234;28;20429;-62
2022/03/06 01:29:01;;;;;;;38.93;19.57;;;;;;;;;;5038099;28;20289;-62
2022/03/06 01:31:27;;;;;;;37.57;19.20;;;;;;;;;;5039249;28;20288;-62
2022/03/06 01:33:53;;;;;;;36.53;20.00;;;;;;;;;;5038791;28;20291;-62
2022/03/06 01:36:19;;;;;;;37.93;18.83;;;;;;;;;;5040315;28;20319;-62
2022/03/06 01:38:45;;;;;;;37.37;19.17;;;;;;;;;;5039109;28;20427;-62
2022/03/06 01:41:11;;;;;;;35.57;19.07;;;;;;;;;;5038497;28;20554;-63
2022/03/06 01:43:37;;;;;;;39.97;21.43;;;;;;;;;;5037634;28;20872;-62
2022/03/06 01:46:03;;;;;;;40.77;22.40;;;;;;;;;;5039880;28;20316;-62
2022/03/06 01:48:29;;;;;;;36.67;21.07;;;;;;;;;;5042747;28;20049;-62
2022/03/06 01:50:55;;;;;;;39.67;19.97;;;;;;;;;;5039450;28;20048;-62
2022/03/06 01:53:21;;;;;;;36.37;20.80;;;;;;;;;;5043709;28;20267;-62
2022/03/06 01:55:47;;;;;;;37.40;20.10;;;;;;;;;;5049847;28;20287;-62
2022/03/06 01:58:14;;;;;;;41.90;20.60;;;;;;;;;;5049753;28;20299;-62
2022/03/06 02:00:44;;;;;;;37.80;19.50;;;;;;;;;;5049304;28;20315;-62
2022/03/06 02:03:11;;;;;;;35.63;20.13;;;;;;;;;;5049600;28;20310;-62
2022/03/06 02:05:38;;;;;;;31.97;19.00;;;;;;;;;;5048926;28;20296;-62
2022/03/06 02:08:05;;;;;;;32.30;19.03;;;;;;;;;;5047471;28;20338;-62
2022/03/06 02:10:31;;;;;;;37.97;20.80;;;;;;;;;;5049272;28;20292;-62
2022/03/06 02:12:58;;;;;;;39.40;19.70;;;;;;;;;;5049296;28;20403;-62
2022/03/06 02:15:24;;;;;;;37.60;19.67;;;;;;;;;;5049469;28;20299;-62
2022/03/06 02:17:50;;;;;;;36.90;19.73;;;;;;;;;;5049817;28;20307;-62
2022/03/06 02:20:17;;;;;;;35.03;19.73;;;;;;;;;;5048588;28;20386;-62
2022/03/06 02:22:47;;;;;;;35.47;19.83;;;;;;;;;;5030688;28;20308;-62
2022/03/06 02:25:21;;;;;;;38.83;20.37;;;;;;;;;;5029029;28;20307;-62
2022/03/06 02:27:48;;;;;;;38.08;21.08;;;;;;;;;;5035862;28;20318;-62
2022/03/06 02:30:15;;;;;;;34.30;20.07;;;;;;;;;;5048839;28;20048;-62
2022/03/06 02:32:43;;;;;;;35.27;19.57;;;;;;;;;;5049116;28;20291;-62
2022/03/06 02:35:09;;;;;;;37.37;21.17;;;;;;;;;;5048623;28;20776;-62
2022/03/06 02:37:36;;;;;;;38.87;21.77;;;;;;;;;;5048903;28;20302;-62
2022/03/06 02:40:04;;;;;;;35.17;20.90;;;;;;;;;;5048798;28;20669;-62
2022/03/06 02:42:31;;;;;;;43.23;20.17;;;;;;;;;;5048709;28;20366;-62
2022/03/06 02:44:59;;;;;;;37.53;19.77;;;;;;;;;;5038030;28;20287;-62
2022/03/06 02:47:25;;;;;;;36.93;19.30;;;;;;;;;;5042676;28;20288;-62
2022/03/06 02:49:51;;;;;;;34.73;18.43;;;;;;;;;;5039484;28;20297;-62
2022/03/06 02:52:18;;;;;;;33.23;18.47;;;;;;;;;;5040424;28;20315;-62
2022/03/06 02:54:44;;;;;;;33.40;18.43;;;;;;;;;;5036876;28;20276;-62
2022/03/06 02:57:11;;;;;;;28.33;16.57;;;;;;;;;;5038701;28;20279;-62
2022/03/06 02:59:37;;;;;;;34.57;17.63;;;;;;;;;;5037715;28;20308;-62
2022/03/06 03:02:04;;;;;;;32.00;17.73;;;;;;;;;;5036523;28;20654;-62
2022/03/06 03:04:30;;;;;;;28.87;16.00;;;;;;;;;;5037105;28;20316;-62
2022/03/06 03:06:57;;;;;;;30.17;16.53;;;;;;;;;;5039045;28;20299;-62
2022/03/06 03:09:24;;;;;;;33.63;16.20;;;;;;;;;;5038362;28;20708;-62
2022/03/06 03:11:51;;;;;;;31.53;16.70;;;;;;;;;;5037835;28;20291;-62
2022/03/06 03:14:17;;;;;;;32.97;18.07;;;;;;;;;;5038905;28;20284;-62
2022/03/06 03:16:43;;;;;;;31.03;17.37;;;;;;;;;;5036764;28;20286;-62
2022/03/06 03:19:09;;;;;;;37.13;18.70;;;;;;;;;;5037495;28;20284;-62
2022/03/06 03:21:35;;;;;;;36.97;19.80;;;;;;;;;;5040308;28;20291;-62
2022/03/06 03:24:01;;;;;;;33.80;18.43;;;;;;;;;;5042118;28;20315;-62
2022/03/06 03:26:27;;;;;;;33.50;18.60;;;;;;;;;;5040155;28;20374;-62
2022/03/06 03:28:53;;;;;;;35.97;17.83;;;;;;;;;;5042016;28;20298;-62
2022/03/06 03:31:20;;;;;;;34.90;18.07;;;;;;;;;;5041948;28;20287;-62
2022/03/06 03:33:46;;;;;;;27.97;15.60;;;;;;;;;;5039854;28;20766;-62
2022/03/06 03:36:12;;;;;;;33.87;17.27;;;;;;;;;;5040499;28;20280;-62
2022/03/06 03:38:40;;;;;;;35.40;17.40;;;;;;;;;;5041022;28;20280;-62
2022/03/06 03:41:06;;;;;;;36.77;16.63;;;;;;;;;;5041609;28;20357;-62
2022/03/06 03:43:32;;;;;;;34.03;15.80;;;;;;;;;;5040011;28;20291;-62
2022/03/06 03:45:58;;;;;;;30.17;15.53;;;;;;;;;;5041320;28;20279;-62
2022/03/06 03:48:28;;;;;;;35.03;17.77;;;;;;;;;;5041946;28;20315;-62
2022/03/06 03:50:54;;;;;;;33.43;17.20;;;;;;;;;;5042088;28;20406;-62
2022/03/06 03:53:21;;;;;;;35.40;16.60;;;;;;;;;;5041606;28;20284;-62
2022/03/06 03:55:47;;;;;;;32.80;17.33;;;;;;;;;;5039745;28;20341;-62
2022/03/06 03:58:13;;;;;;;32.23;18.03;;;;;;;;;;5041458;28;20314;-62
2022/03/06 04:00:39;;;;;;;29.00;16.27;;;;;;;;;;5038831;28;20804;-62
2022/03/06 04:03:05;;;;;;;31.40;15.87;;;;;;;;;;5040257;28;20301;-62
2022/03/06 04:05:31;;;;;;;27.30;14.70;;;;;;;;;;5040182;28;20275;-62
2022/03/06 04:07:57;;;;;;;28.20;15.67;;;;;;;;;;5040085;28;20371;-62
2022/03/06 04:10:23;;;;;;;36.37;18.37;;;;;;;;;;5042241;28;20045;-62
2022/03/06 04:12:49;;;;;;;28.43;15.53;;;;;;;;;;5041582;28;20275;-62
2022/03/06 04:15:15;;;;;;;32.37;16.20;;;;;;;;;;5040004;28;20283;-62
2022/03/06 04:17:41;;;;;;;29.17;16.57;;;;;;;;;;5040126;28;20657;-62
2022/03/06 04:20:08;;;;;;;26.83;15.63;;;;;;;;;;5041393;28;20052;-62
2022/03/06 04:22:34;;;;;;;26.93;15.93;;;;;;;;;;5039841;28;20045;-62
2022/03/06 04:25:00;;;;;;;32.03;17.80;;;;;;;;;;5039803;28;20808;-62
2022/03/06 04:27:26;;;;;;;26.47;15.03;;;;;;;;;;5041238;28;21183;-62
2022/03/06 04:29:52;;;;;;;30.37;16.60;;;;;;;;;;5039989;28;20295;-62
2022/03/06 04:32:18;;;;;;;33.10;18.87;;;;;;;;;;5044074;28;20283;-62
2022/03/06 04:34:44;;;;;;;31.33;17.17;;;;;;;;;;5039274;28;20322;-62
2022/03/06 04:37:10;;;;;;;32.70;15.83;;;;;;;;;;5038703;28;20288;-62
2022/03/06 04:39:36;;;;;;;33.57;19.80;;;;;;;;;;5038912;28;20321;-62
2022/03/06 04:42:03;;;;;;;35.37;17.90;;;;;;;;;;5042971;28;20335;-62
2022/03/06 04:44:29;;;;;;;39.67;17.37;;;;;;;;;;5040822;28;20284;-62
2022/03/06 04:46:55;;;;;;;31.63;16.57;;;;;;;;;;5039945;28;20342;-62
2022/03/06 04:49:21;;;;;;;28.77;14.40;;;;;;;;;;5039914;28;20276;-62
2022/03/06 04:51:47;;;;;;;32.87;16.47;;;;;;;;;;5040773;28;20349;-62
2022/03/06 04:54:13;;;;;;;27.13;14.77;;;;;;;;;;5038648;28;20042;-62
2022/03/06 04:56:39;;;;;;;31.60;14.67;;;;;;;;;;5039966;28;20272;-62
2022/03/06 04:59:05;;;;;;;29.17;14.50;;;;;;;;;;5040503;28;20341;-62
2022/03/06 05:01:31;;;;;;;29.30;15.40;;;;;;;;;;5039377;28;20280;-62
2022/03/06 05:03:57;;;;;;;26.03;15.27;;;;;;;;;;5039972;28;20120;-62
2022/03/06 05:06:23;;;;;;;23.20;14.30;;;;;;;;;;5040641;28;20344;-62
2022/03/06 05:08:49;;;;;;;26.63;14.20;;;;;;;;;;5038731;28;20287;-62
2022/03/06 05:11:16;;;;;;;23.03;13.07;;;;;;;;;;5039968;28;21071;-62
2022/03/06 05:13:42;;;;;;;34.03;14.63;;;;;;;;;;5040475;28;20309;-62
2022/03/06 05:16:08;;;;;;;28.40;14.70;;;;;;;;;;5040014;28;20279;-62
2022/03/06 05:18:34;;;;;;;26.77;14.97;;;;;;;;;;5038734;28;20423;-62
2022/03/06 05:21:00;;;;;;;24.87;14.27;;;;;;;;;;5038891;28;20303;-62
2022/03/06 05:23:26;;;;;;;30.23;16.33;;;;;;;;;;5040327;28;20295;-62
2022/03/06 05:25:54;;;;;;;30.30;16.40;;;;;;;;;;5038596;28;20284;-62
2022/03/06 05:28:20;;;;;;;23.43;14.80;;;;;;;;;;5038956;28;20052;-62
2022/03/06 05:30:46;;;;;;;20.73;14.00;;;;;;;;;;5039751;28;20353;-62
2022/03/06 05:33:12;;;;;;;24.80;14.53;;;;;;;;;;5040255;28;20276;-62
2022/03/06 05:35:39;;;;;;;25.80;12.90;;;;;;;;;;5039186;28;20136;-62
2022/03/06 05:38:05;;;;;;;26.90;15.13;;;;;;;;;;5040083;28;20802;-62
2022/03/06 05:40:31;;;;;;;29.17;16.63;;;;;;;;;;5040027;28;20311;-62
2022/03/06 05:42:57;;;;;;;28.10;15.37;;;;;;;;;;5036256;28;20288;-62
2022/03/06 05:45:23;;;;;;;23.27;14.83;;;;;;;;;;5039609;28;20291;-62
2022/03/06 05:47:49;;;;;;;24.30;15.27;;;;;;;;;;5038116;28;20071;-62
2022/03/06 05:50:15;;;;;;;25.70;14.20;;;;;;;;;;5039487;28;21220;-62
2022/03/06 05:52:41;;;;;;;23.47;13.23;;;;;;;;;;5039560;28;20041;-62
2022/03/06 05:55:07;;;;;;;23.00;13.47;;;;;;;;;;5037715;28;20286;-62
2022/03/06 05:57:33;;;;;;;25.30;13.90;;;;;;;;;;5038236;28;20276;-62
2022/03/06 05:59:59;;;;;;;23.40;13.47;;;;;;;;;;5041421;28;20311;-62
2022/03/06 06:02:25;;;;;;;22.20;12.43;;;;;;;;;;5039723;28;20132;-62
2022/03/06 06:04:51;;;;;;;18.03;12.17;;;;;;;;;;5037757;28;20137;-62
2022/03/06 06:07:17;;;;;;;19.20;10.40;;;;;;;;;;5031819;28;20283;-62
2022/03/06 06:09:43;;;;;;;21.50;12.00;;;;;;;;;;5042220;28;20292;-62
2022/03/06 06:12:10;;;;;;;16.43;10.60;;;;;;;;;;5037585;28;20305;-62
2022/03/06 06:14:36;;;;;;;20.80;11.00;;;;;;;;;;5039049;28;20080;-62
2022/03/06 06:17:02;;;;;;;22.97;11.00;;;;;;;;;;5038806;28;20288;-62
2022/03/06 06:19:28;;;;;;;17.67;10.60;;;;;;;;;;5039152;28;20368;-62
2022/03/06 06:21:54;;;;;;;14.80;10.17;;;;;;;;;;5037454;28;20272;-62
2022/03/06 06:24:20;;;;;;;23.10;11.40;;;;;;;;;;5036899;28;20041;-63
2022/03/06 06:26:47;;;;;;;22.53;13.23;;;;;;;;;;5039378;28;21120;-62
2022/03/06 06:29:13;;;;;;;25.80;11.70;;;;;;;;;;5045880;28;20047;-63
2022/03/06 06:31:40;;;;;;;19.27;10.70;;;;;;;;;;5037866;28;20308;-62
2022/03/06 06:34:06;;;;;;;17.27;11.53;;;;;;;;;;5038961;28;20359;-62
2022/03/06 06:36:32;;;;;;;21.13;10.37;;;;;;;;;;5038116;28;20286;-62
2022/03/06 06:38:58;;;;;;;20.17;10.50;;;;;;;;;;5040236;28;20280;-62
2022/03/06 06:41:24;;;;;;;19.97;10.73;;;;;;;;;;5036589;28;20304;-62
2022/03/06 06:43:50;;;;;;;19.83;10.40;;;;;;;;;;5038324;28;20337;-62
2022/03/06 06:46:16;;;;;;;17.27;9.73;;;;;;;;;;5043353;28;21103;-62
2022/03/06 06:48:42;;;;;;;16.97;9.70;;;;;;;;;;5047843;28;20315;-62
2022/03/06 06:51:09;;;;;;;15.77;9.43;;;;;;;;;;5036774;28;20288;-62
2022/03/06 06:53:36;;;;;;;23.57;12.63;;;;;;;;;;5037272;28;20327;-62
2022/03/06 06:56:02;;;;;;;22.10;10.23;;;;;;;;;;5035254;28;20292;-62
2022/03/06 06:58:28;;;;;;;20.43;10.33;;;;;;;;;;5038130;28;20287;-62
2022/03/06 07:00:54;;;;;;;16.60;9.43;;;;;;;;;;5037681;28;20387;-62
2022/03/06 07:03:20;;;;;;;13.97;9.90;;;;;;;;;;5035845;28;21204;-62
2022/03/06 07:05:47;;;;;;;18.73;10.57;;;;;;;;;;5036841;28;20319;-62
2022/03/06 07:08:13;;;;;;;19.87;11.50;;;;;;;;;;5037717;28;20355;-63
2022/03/06 07:10:40;;;;;;;16.87;10.87;;;;;;;;;;5039413;28;20297;-63
2022/03/06 07:13:06;;;;;;;18.50;9.80;;;;;;;;;;5042184;28;20355;-62
2022/03/06 07:15:32;;;;;;;21.67;11.50;;;;;;;;;;5035853;28;20844;-62
2022/03/06 07:18:01;;;;;;;18.43;10.73;;;;;;;;;;5037653;28;20310;-62
2022/03/06 07:20:28;;;;;;;18.27;9.73;;;;;;;;;;5033401;28;20674;-62
2022/03/06 07:22:55;;;;;;;17.00;10.00;;;;;;;;;;5041107;28;20294;-62
2022/03/06 07:25:21;;;;;;;20.20;11.00;;;;;;;;;;5048107;28;20326;-62
2022/03/06 07:27:47;;;;;;;15.90;8.97;;;;;;;;;;5048190;28;20307;-62
2022/03/06 07:30:13;;;;;;;16.97;10.10;;;;;;;;;;5046671;28;20618;-63
2022/03/06 07:32:43;;;;;;;14.33;9.47;;;;;;;;;;5048477;28;20337;-62
2022/03/06 07:35:10;;;;;;;14.57;7.73;;;;;;;;;;5047980;28;20330;-62
2022/03/06 07:37:36;;;;;;;19.13;11.00;;;;;;;;;;5048438;28;20280;-62
2022/03/06 07:40:03;;;;;;;19.10;10.00;;;;;;;;;;5046363;28;20879;-63
2022/03/06 07:42:29;;;;;;;17.00;8.67;;;;;;;;;;5048362;28;20391;-63
2022/03/06 07:44:55;;;;;;;12.47;7.40;;;;;;;;;;5039691;28;20276;-63
2022/03/06 07:47:21;;;;;;;17.70;8.50;;;;;;;;;;5036817;28;20876;-63
2022/03/06 07:49:47;;;;;;;20.80;8.67;;;;;;;;;;5038615;28;20124;-63
2022/03/06 07:52:13;;;;;;;14.43;7.63;;;;;;;;;;5041457;28;20729;-63
2022/03/06 07:54:39;;;;;;;13.93;7.23;;;;;;;;;;5040370;28;20041;-63
2022/03/06 07:57:05;;;;;;;14.23;8.03;;;;;;;;;;5039670;28;20397;-63
2022/03/06 07:59:31;;;;;;;14.63;6.83;;;;;;;;;;5039160;28;20044;-63
2022/03/06 08:01:57;;;;;;;16.40;7.13;;;;;;;;;;5040748;28;20855;-63
2022/03/06 08:04:23;;;;;;;10.83;5.90;;;;;;;;;;5037730;28;20303;-63
2022/03/06 08:06:49;;;;;;;10.90;6.23;;;;;;;;;;5055494;28;20709;-63
2022/03/06 08:09:15;;;;;;;11.60;6.97;;;;;;;;;;5044578;28;20322;-63
2022/03/06 08:11:41;;;;;;;11.07;6.70;;;;;;;;;;5050759;28;20573;-63
2022/03/06 08:14:08;;;;;;;10.23;6.03;;;;;;;;;;5051370;28;20949;-63
2022/03/06 08:16:34;;;;;;;10.23;5.83;;;;;;;;;;5050515;28;20658;-62
2022/03/06 08:19:00;;;;;;;9.47;5.47;;;;;;;;;;5043694;28;20288;-63
2022/03/06 08:21:26;;;;;;;12.83;5.77;;;;;;;;;;5051288;28;20330;-63
2022/03/06 08:23:52;;;;;;;10.30;5.33;;;;;;;;;;5049417;28;20045;-63
2022/03/06 08:26:18;;;;;;;11.47;6.30;;;;;;;;;;5050407;28;20047;-63
2022/03/06 08:28:44;;;;;;;9.37;5.63;;;;;;;;;;5041260;28;20342;-63
2022/03/06 08:31:11;;;;;;;8.17;5.00;;;;;;;;;;5050686;28;20300;-63
2022/03/06 08:33:37;;;;;;;11.50;6.97;;;;;;;;;;5051200;28;20288;-63
2022/03/06 08:36:03;;;;;;;8.83;4.93;;;;;;;;;;5050483;28;21246;-63
2022/03/06 08:38:30;;;;;;;11.57;4.93;;;;;;;;;;5050903;28;20391;-63
2022/03/06 08:40:56;;;;;;;7.40;4.60;;;;;;;;;;5050606;28;20341;-63
2022/03/06 08:43:22;;;;;;;9.07;5.33;;;;;;;;;;5049374;28;20292;-63
2022/03/06 08:45:48;;;;;;;10.03;4.97;;;;;;;;;;5042963;28;20295;-63
2022/03/06 08:48:14;;;;;;;7.57;4.30;;;;;;;;;;5050187;28;20053;-63
2022/03/06 08:50:40;;;;;;;13.10;6.70;;;;;;;;;;5050620;28;20152;-63
2022/03/06 08:53:06;;;;;;;10.03;4.03;;;;;;;;;;5050383;28;20045;-63
2022/03/06 08:55:32;;;;;;;12.97;4.63;;;;;;;;;;5050296;28;20299;-63
2022/03/06 08:57:59;;;;;;;8.57;3.93;;;;;;;;;;5050666;28;20366;-63
2022/03/06 09:00:25;;;;;;;10.40;4.70;;;;;;;;;;5050017;28;20303;-63
2022/03/06 09:02:51;;;;;;;9.43;4.60;;;;;;;;;;5047195;28;20808;-63
2022/03/06 09:05:20;;;;;;;8.13;4.03;;;;;;;;;;5050989;28;20275;-63
2022/03/06 09:07:46;;;;;;;6.80;4.73;;;;;;;;;;5042878;28;20443;-63
2022/03/06 09:10:12;;;;;;;10.57;4.53;;;;;;;;;;5038977;28;20296;-63
2022/03/06 09:12:39;;;;;;;9.80;4.33;;;;;;;;;;5050262;28;20290;-63
2022/03/06 09:15:05;;;;;;;9.33;4.53;;;;;;;;;;5050038;28;20639;-63
2022/03/06 09:17:31;;;;;;;8.10;4.10;;;;;;;;;;5049653;28;20429;-63
2022/03/06 09:19:57;;;;;;;8.67;3.30;;;;;;;;;;5049431;28;20358;-63
2022/03/06 09:22:23;;;;;;;8.37;3.90;;;;;;;;;;5050176;28;20284;-63
2022/03/06 09:24:49;;;;;;;7.87;3.10;;;;;;;;;;5049811;28;20041;-63
2022/03/06 09:27:16;;;;;;;5.57;3.27;;;;;;;;;;5045697;28;20041;-63
2022/03/06 09:29:42;;;;;;;5.47;2.80;;;;;;;;;;5048438;28;20051;-63
2022/03/06 09:32:08;;;;;;;5.90;3.13;;;;;;;;;;5048505;28;20605;-63
2022/03/06 09:34:34;;;;;;;4.93;2.97;;;;;;;;;;5048805;28;20054;-63
2022/03/06 09:37:00;;;;;;;6.67;3.00;;;;;;;;;;5039616;28;20080;-63
2022/03/06 09:39:26;;;;;;;4.53;2.30;;;;;;;;;;5030944;28;20046;-63
2022/03/06 09:41:54;;;;;;;6.47;2.37;;;;;;;;;;5048339;28;20040;-63
2022/03/06 09:44:23;;;;;;;3.57;2.00;;;;;;;;;;5048405;28;20048;-63
2022/03/06 09:46:52;;;;;;;5.57;2.17;;;;;;;;;;5049400;28;20049;-63
2022/03/06 09:49:18;;;;;;;6.00;2.50;;;;;;;;;;5049004;28;20420;-63
2022/03/06 09:51:44;;;;;;;3.37;1.97;;;;;;;;;;5048425;28;20633;-63
2022/03/06 09:54:12;;;;;;;3.50;2.30;;;;;;;;;;5048497;28;20037;-63
2022/03/06 09:56:38;;;;;;;6.90;2.93;;;;;;;;;;5047352;28;20049;-63
2022/03/06 09:59:04;;;;;;;4.07;2.37;;;;;;;;;;5048711;28;20036;-63
2022/03/06 10:01:30;;;;;;;6.67;2.73;;;;;;;;;;5049107;28;20071;-63
2022/03/06 10:03:56;;;;;;;4.70;2.20;;;;;;;;;;5048583;28;20060;-63
2022/03/06 10:06:23;;;;;;;4.27;1.97;;;;;;;;;;5048327;28;20049;-63
2022/03/06 10:09:02;;;;;;;3.80;2.27;;;;;;;;;;5049576;28;20045;-63
2022/03/06 10:11:28;;;;;;;3.73;2.00;;;;;;;;;;5048344;28;20048;-63
2022/03/06 10:13:54;;;;;;;5.43;2.63;;;;;;;;;;5047545;28;21015;-63
2022/03/06 10:16:21;;;;;;;5.47;2.00;;;;;;;;;;5049147;28;20494;-63
2022/03/06 10:18:47;;;;;;;5.60;2.27;;;;;;;;;;5047190;28;20078;-64
2022/03/06 10:21:13;;;;;;;5.27;2.40;;;;;;;;;;5049272;28;20056;-64
2022/03/06 10:23:40;;;;;;;3.57;1.93;;;;;;;;;;5049354;28;20049;-63
2022/03/06 10:26:10;;;;;;;4.90;2.00;;;;;;;;;;5046880;28;20052;-63
2022/03/06 10:28:44;;;;;;;5.00;1.93;;;;;;;;;;5048096;28;20763;-63
2022/03/06 10:31:10;;;;;;;7.60;2.20;;;;;;;;;;5048104;28;20135;-63
2022/03/06 10:33:36;;;;;;;3.93;1.83;;;;;;;;;;5047979;28;20103;-63
2022/03/06 10:36:02;;;;;;;3.93;1.80;;;;;;;;;;5047546;28;20049;-63
2022/03/06 10:38:32;;;;;;;4.93;2.00;;;;;;;;;;5042660;28;20053;-63
2022/03/06 10:40:59;;;;;;;4.50;1.70;;;;;;;;;;5028520;28;20092;-63
2022/03/06 10:43:29;;;;;;;3.90;1.80;;;;;;;;;;5045078;28;20049;-63
2022/03/06 10:46:14;;;;;;;3.50;1.60;;;;;;;;;;5048712;28;20095;-63
2022/03/06 10:48:41;;;;;;;4.87;2.10;;;;;;;;;;5048050;28;20526;-64
2022/03/06 10:51:08;;;;;;;2.83;1.47;;;;;;;;;;5041497;28;20114;-63
2022/03/06 10:53:34;;;;;;;5.27;2.00;;;;;;;;;;5040064;28;20110;-63
2022/03/06 10:56:18;;;;;;;2.47;1.47;;;;;;;;;;5038353;28;20044;-64
2022/03/06 10:58:45;;;;;;;3.63;1.93;;;;;;;;;;5040886;28;20522;-63
2022/03/06 11:01:11;;;;;;;4.30;1.50;;;;;;;;;;5037429;28;20037;-64
2022/03/06 11:03:38;;;;;;;4.00;1.97;;;;;;;;;;5037872;28;20044;-64
2022/03/06 11:06:05;;;;;;;3.67;1.80;;;;;;;;;;5040034;28;20049;-63
2022/03/06 11:08:32;;;;;;;4.33;1.90;;;;;;;;;;5040048;28;20574;-63
2022/03/06 11:10:59;;;;;;;2.70;1.47;;;;;;;;;;5035563;28;20044;-63
2022/03/06 11:13:25;;;;;;;5.50;1.53;;;;;;;;;;5035600;28;20056;-63
2022/03/06 11:15:51;;;;;;;3.63;1.73;;;;;;;;;;5041518;28;20046;-63
2022/03/06 11:18:17;;;;;;;3.37;1.33;;;;;;;;;;5038085;28;20050;-64
2022/03/06 11:20:44;;;;;;;4.20;1.60;;;;;;;;;;5039350;28;20045;-64
2022/03/06 11:23:18;;;;;;;4.37;2.07;;;;;;;;;;5037577;28;20479;-64
2022/03/06 11:25:57;;;;;;;4.67;1.83;;;;;;;;;;5039289;28;20430;-63
2022/03/06 11:28:32;;;;;;;2.77;1.50;;;;;;;;;;5041366;28;20060;-63
2022/03/06 11:30:59;;;;;;;2.37;1.40;;;;;;;;;;5042558;28;20526;-63
2022/03/06 11:33:26;;;;;;;4.53;1.80;;;;;;;;;;5047779;28;20056;-63
2022/03/06 11:35:52;;;;;;;4.23;1.80;;;;;;;;;;5048667;28;20124;-63
2022/03/06 11:38:18;;;;;;;7.73;1.80;;;;;;;;;;5048618;28;20175;-63
2022/03/06 11:40:48;;;;;;;4.67;1.47;;;;;;;;;;5048576;28;20506;-63
2022/03/06 11:43:33;;;;;;;2.90;1.50;;;;;;;;;;5052422;28;20048;-63
2022/03/06 11:45:59;;;;;;;4.93;2.30;;;;;;;;;;5052400;28;20182;-63
2022/03/06 11:48:25;;;;;;;3.40;1.67;;;;;;;;;;5051515;28;20855;-63
2022/03/06 11:51:09;;;;;;;3.63;1.40;;;;;;;;;;5052525;28;20049;-64
2022/03/06 11:53:49;;;;;;;4.23;1.47;;;;;;;;;;5051428;28;20037;-63
2022/03/06 11:56:36;;;;;;;3.97;1.70;;;;;;;;;;5050562;28;20045;-64
2022/03/06 11:59:06;;;;;;;2.90;1.60;;;;;;;;;;5049642;28;20103;-63
2022/03/06 12:01:40;;;;;;;4.40;1.70;;;;;;;;;;5050462;28;20052;-64
2022/03/06 12:04:10;;;;;;;3.47;1.50;;;;;;;;;;5050842;28;20053;-64
2022/03/06 12:06:47;;;;;;;3.10;1.43;;;;;;;;;;5050792;28;20128;-63
2022/03/06 12:09:12;;;;;;;3.10;1.70;;;;;;;;;;5050706;28;20083;-64
2022/03/06 12:11:39;;;;;;;3.83;2.10;;;;;;;;;;5050896;28;20118;-63
2022/03/06 12:14:12;;;;;;;2.80;1.40;;;;;;;;;;5051983;28;20162;-64
2022/03/06 12:16:58;;;;;;;4.03;2.08;;;;;;;;;;5051214;28;20444;-63
2022/03/06 12:19:24;;;;;;;5.37;1.70;;;;;;;;;;5051212;28;20078;-63
2022/03/06 12:21:50;;;;;;;3.63;1.73;;;;;;;;;;5051082;28;20118;-64
2022/03/06 12:24:28;;;;;;;3.53;1.50;;;;;;;;;;5051663;28;20041;-64
2022/03/06 12:26:54;;;;;;;5.30;1.97;;;;;;;;;;5049931;28;20037;-63
2022/03/06 12:29:39;;;;;;;6.63;1.93;;;;;;;;;;5050819;28;20080;-63
2022/03/06 12:32:31;;;;;;;3.37;1.70;;;;;;;;;;5051618;28;20068;-63
2022/03/06 12:35:03;;;;;;;3.67;1.80;;;;;;;;;;5051457;28;20111;-63
2022/03/06 12:37:30;;;;;;;5.07;2.03;;;;;;;;;;5051553;28;20379;-64
2022/03/06 12:39:57;;;;;;;3.50;1.77;;;;;;;;;;5050830;28;20047;-63
2022/03/06 12:42:31;;;;;;;6.47;1.70;;;;;;;;;;5051237;28;20088;-64
2022/03/06 12:44:58;;;;;;;5.77;2.10;;;;;;;;;;5051238;28;20119;-64
2022/03/06 12:47:26;;;;;;;4.83;1.60;;;;;;;;;;5051356;28;20111;-64
2022/03/06 12:49:53;;;;;;;5.93;2.00;;;;;;;;;;5050740;28;20049;-64
2022/03/06 12:52:19;;;;;;;4.53;1.80;;;;;;;;;;5050615;28;20716;-64
2022/03/06 12:54:46;;;;;;;5.57;2.00;;;;;;;;;;5051067;28;20042;-64
2022/03/06 12:57:12;;;;;;;3.13;2.00;;;;;;;;;;5048898;28;20043;-64
2022/03/06 12:59:40;;;;;;;4.00;1.90;;;;;;;;;;5051080;28;20048;-64
2022/03/06 13:02:07;;;;;;;4.10;1.60;;;;;;;;;;5034525;28;20037;-64
2022/03/06 13:04:36;;;;;;;4.53;2.07;;;;;;;;;;5050050;28;20075;-64
2022/03/06 13:07:03;;;;;;;3.77;2.10;;;;;;;;;;5050203;28;20048;-64
2022/03/06 13:09:34;;;;;;;5.07;2.03;;;;;;;;;;5050696;28;20045;-64
2022/03/06 13:12:00;;;;;;;5.10;1.50;;;;;;;;;;5050376;28;20047;-64
2022/03/06 13:14:31;;;;;;;4.20;1.70;;;;;;;;;;5050555;28;20064;-64
2022/03/06 13:17:07;;;;;;;4.70;1.93;;;;;;;;;;5050429;28;20056;-65
2022/03/06 13:19:37;;;;;;;4.57;1.77;;;;;;;;;;5050097;28;20102;-64
2022/03/06 13:22:11;;;;;;;4.00;1.90;;;;;;;;;;5048479;28;20041;-64
2022/03/06 13:24:44;;;;;;;4.60;1.67;;;;;;;;;;5049821;28;20454;-64
2022/03/06 13:27:20;;;;;;;3.43;1.37;;;;;;;;;;5030539;28;20041;-64
2022/03/06 13:30:06;;;;;;;4.20;1.60;;;;;;;;;;5048139;28;20090;-64
2022/03/06 13:32:36;;;;;;;4.10;2.10;;;;;;;;;;5042791;28;20044;-64
2022/03/06 13:35:03;;;;;;;2.97;1.33;;;;;;;;;;5050104;28;20037;-64
2022/03/06 13:37:36;;;;;;;4.07;2.10;;;;;;;;;;5050276;28;20041;-64
2022/03/06 13:40:13;;;;;;;2.88;1.65;;;;;;;;;;5050787;28;20075;-62
2022/03/06 13:42:40;;;;;;;4.43;2.13;;;;;;;;;;5050316;28;20048;-62
2022/03/06 13:45:09;;;;;;;4.07;1.80;;;;;;;;;;5049874;28;20089;-62
2022/03/06 13:47:39;;;;;;;3.60;1.70;;;;;;;;;;5050142;28;20697;-62
2022/03/06 13:50:05;;;;;;;3.10;1.83;;;;;;;;;;5049594;28;20061;-62
2022/03/06 13:52:33;;;;;;;4.03;1.70;;;;;;;;;;5049327;28;20128;-62
2022/03/06 13:55:03;;;;;;;3.70;1.90;;;;;;;;;;5049554;28;20048;-62
2022/03/06 13:57:29;;;;;;;5.87;1.77;;;;;;;;;;5049935;28;20084;-61
2022/03/06 13:59:56;;;;;;;3.47;1.77;;;;;;;;;;5049389;28;20084;-62
2022/03/06 14:02:27;;;;;;;4.50;2.20;;;;;;;;;;5048789;28;20041;-62
2022/03/06 14:04:53;;;;;;;3.60;2.00;;;;;;;;;;5048187;28;20048;-62
2022/03/06 14:07:24;;;;;;;3.87;2.23;;;;;;;;;;5049417;28;20491;-62
2022/03/06 14:09:50;;;;;;;3.30;1.50;;;;;;;;;;5049860;28;20049;-62
2022/03/06 14:12:17;;;;;;;3.23;1.47;;;;;;;;;;5047571;28;20506;-62
2022/03/06 14:14:45;;;;;;;4.83;1.90;;;;;;;;;;5048799;28;20055;-62
2022/03/06 14:17:14;;;;;;;4.17;1.40;;;;;;;;;;5029267;28;20415;-62
2022/03/06 14:19:40;;;;;;;4.07;1.90;;;;;;;;;;5029781;28;20704;-62
2022/03/06 14:22:06;;;;;;;5.37;2.33;;;;;;;;;;5047404;28;20041;-62
2022/03/06 14:24:32;;;;;;;3.77;1.67;;;;;;;;;;5048737;28;20049;-62
2022/03/06 14:26:59;;;;;;;5.73;2.00;;;;;;;;;;5048607;28;20103;-62
2022/03/06 14:29:26;;;;;;;5.83;1.97;;;;;;;;;;5049163;28;20049;-62